Time;durP1;ratioP1;P1;durP2;ratioP2;P2;SDS_P1;SDS_P2;PMS_P1;PMS_P2;Temp;Humidity;BMP_temperature;BMP_pressure;BME280_temperature;BME280_humidity;BME280_pressure;Samples;Min_cycle;Max_cycle;Signal;HPM_P1;HPM_P2
2023/09/07 00:00:17;;;;;;;37.80;8.68;;;;;;;;;;5015723;28;20233;-88
2023/09/07 00:02:44;;;;;;;28.63;8.50;;;;;;;;;;5014865;28;20628;-87
2023/09/07 00:05:13;;;;;;;30.85;8.25;;;;;;;;;;5015767;28;20243;-87
2023/09/07 00:07:42;;;;;;;24.23;7.53;;;;;;;;;;5017871;28;20237;-88
2023/09/07 00:10:09;;;;;;;23.42;8.32;;;;;;;;;;5017964;28;20319;-88
2023/09/07 00:12:39;;;;;;;25.98;7.97;;;;;;;;;;5019091;28;20213;-87
2023/09/07 00:15:07;;;;;;;27.80;8.38;;;;;;;;;;5020909;28;20201;-88
2023/09/07 00:17:34;;;;;;;24.38;7.88;;;;;;;;;;5018077;28;20654;-87
2023/09/07 00:20:05;;;;;;;24.95;8.35;;;;;;;;;;5019655;28;20291;-87
2023/09/07 00:22:33;;;;;;;23.02;7.72;;;;;;;;;;5017787;28;20209;-87
2023/09/07 00:25:01;;;;;;;27.40;7.97;;;;;;;;;;5018730;28;20349;-88
2023/09/07 00:27:28;;;;;;;24.52;7.43;;;;;;;;;;5018363;28;20613;-88
2023/09/07 00:29:56;;;;;;;25.17;8.02;;;;;;;;;;5019789;28;20734;-87
2023/09/07 00:32:23;;;;;;;28.30;8.00;;;;;;;;;;5019847;28;20201;-88
2023/09/07 00:34:50;;;;;;;23.80;8.35;;;;;;;;;;5019301;28;20232;-87
2023/09/07 00:37:17;;;;;;;26.33;7.78;;;;;;;;;;5019027;28;20291;-87
2023/09/07 00:39:46;;;;;;;22.77;8.25;;;;;;;;;;5019159;28;20737;-87
2023/09/07 00:42:15;;;;;;;25.05;8.00;;;;;;;;;;5018462;28;20229;-87
2023/09/07 00:44:42;;;;;;;26.75;7.88;;;;;;;;;;5018447;28;20847;-88
2023/09/07 00:47:09;;;;;;;26.90;7.85;;;;;;;;;;5018510;28;20260;-88
2023/09/07 00:49:36;;;;;;;23.17;7.80;;;;;;;;;;5018801;28;20208;-87
2023/09/07 00:52:04;;;;;;;20.45;8.15;;;;;;;;;;5018117;28;20225;-88
2023/09/07 00:54:31;;;;;;;24.13;8.50;;;;;;;;;;5019375;28;20197;-87
2023/09/07 00:56:59;;;;;;;29.73;9.15;;;;;;;;;;5016983;28;20264;-87
2023/09/07 00:59:28;;;;;;;29.33;8.35;;;;;;;;;;5017573;28;20236;-87
2023/09/07 01:01:55;;;;;;;21.92;8.63;;;;;;;;;;5016211;28;20263;-87
2023/09/07 01:04:22;;;;;;;27.63;8.27;;;;;;;;;;4983327;28;20220;-87
2023/09/07 01:06:53;;;;;;;28.08;8.68;;;;;;;;;;5017405;28;20649;-88
2023/09/07 01:09:21;;;;;;;19.60;7.97;;;;;;;;;;5017619;28;20194;-87
2023/09/07 01:11:49;;;;;;;26.48;8.85;;;;;;;;;;5000538;28;20208;-87
2023/09/07 01:14:17;;;;;;;23.67;9.43;;;;;;;;;;5015816;28;20209;-87
2023/09/07 01:16:45;;;;;;;22.65;8.68;;;;;;;;;;5016548;28;20267;-87
2023/09/07 01:19:13;;;;;;;22.10;8.10;;;;;;;;;;5016842;28;20209;-88
2023/09/07 01:21:41;;;;;;;23.17;8.13;;;;;;;;;;5016878;28;20662;-88
2023/09/07 01:24:09;;;;;;;22.98;8.32;;;;;;;;;;5016607;28;20221;-88
2023/09/07 01:26:39;;;;;;;23.73;7.68;;;;;;;;;;4997955;28;20229;-87
2023/09/07 01:29:08;;;;;;;20.83;7.53;;;;;;;;;;4980114;28;20662;-88
2023/09/07 01:31:37;;;;;;;22.60;7.55;;;;;;;;;;4997983;28;20212;-87
2023/09/07 01:34:06;;;;;;;24.38;8.57;;;;;;;;;;4998474;28;20217;-88
2023/09/07 01:36:33;;;;;;;19.10;7.80;;;;;;;;;;4997268;28;20639;-87
2023/09/07 01:39:02;;;;;;;21.88;8.65;;;;;;;;;;4997951;28;20194;-87
2023/09/07 01:41:30;;;;;;;22.85;7.88;;;;;;;;;;4997288;28;20222;-88
2023/09/07 01:43:58;;;;;;;22.30;9.45;;;;;;;;;;4998394;28;20209;-87
2023/09/07 01:46:25;;;;;;;21.33;8.20;;;;;;;;;;4997499;28;20206;-86
2023/09/07 01:48:52;;;;;;;22.98;8.57;;;;;;;;;;4997083;28;20240;-87
2023/09/07 01:51:19;;;;;;;17.00;7.70;;;;;;;;;;4996533;28;20293;-87
2023/09/07 01:53:49;;;;;;;18.75;7.85;;;;;;;;;;4998718;28;20693;-86
2023/09/07 01:56:18;;;;;;;26.38;8.07;;;;;;;;;;4996731;28;20232;-86
2023/09/07 01:58:45;;;;;;;18.00;7.72;;;;;;;;;;4998652;28;20202;-87
2023/09/07 02:01:22;;;;;;;24.92;8.10;;;;;;;;;;4996972;28;20237;-87
2023/09/07 02:03:49;;;;;;;17.50;8.10;;;;;;;;;;4997878;28;20209;-86
2023/09/07 02:06:16;;;;;;;17.23;7.10;;;;;;;;;;4996670;28;20198;-86
2023/09/07 02:08:43;;;;;;;20.60;7.30;;;;;;;;;;4996926;28;20316;-87
2023/09/07 02:11:11;;;;;;;18.88;7.35;;;;;;;;;;4997066;28;20208;-87
2023/09/07 02:13:39;;;;;;;19.80;7.35;;;;;;;;;;4996357;28;20210;-87
2023/09/07 02:16:07;;;;;;;23.70;7.80;;;;;;;;;;4997188;28;20248;-86
2023/09/07 02:18:34;;;;;;;25.23;8.25;;;;;;;;;;5012142;28;20221;-87
2023/09/07 02:21:04;;;;;;;17.35;8.30;;;;;;;;;;5017130;28;20643;-87
2023/09/07 02:23:32;;;;;;;22.30;8.00;;;;;;;;;;5016116;28;20641;-87
2023/09/07 02:25:59;;;;;;;17.40;7.93;;;;;;;;;;5015762;28;20236;-87
2023/09/07 02:28:26;;;;;;;22.75;7.82;;;;;;;;;;5016701;28;20259;-87
2023/09/07 02:30:55;;;;;;;22.25;7.57;;;;;;;;;;5015877;28;20252;-87
2023/09/07 02:33:22;;;;;;;24.60;8.57;;;;;;;;;;5015314;28;20666;-87
2023/09/07 02:35:50;;;;;;;17.27;7.28;;;;;;;;;;5016941;28;20280;-87
2023/09/07 02:38:17;;;;;;;21.63;7.90;;;;;;;;;;5015246;28;20681;-87
2023/09/07 02:40:45;;;;;;;19.70;8.45;;;;;;;;;;5015399;28;20194;-87
2023/09/07 02:43:12;;;;;;;16.15;8.98;;;;;;;;;;5014439;28;20192;-87
2023/09/07 02:45:40;;;;;;;21.17;9.02;;;;;;;;;;5016157;28;20232;-87
2023/09/07 02:48:08;;;;;;;21.25;9.52;;;;;;;;;;5015799;28;20255;-86
2023/09/07 02:50:36;;;;;;;23.23;9.38;;;;;;;;;;5015511;28;20280;-87
2023/09/07 02:53:04;;;;;;;21.52;9.00;;;;;;;;;;5015678;28;20233;-85
2023/09/07 02:55:31;;;;;;;18.73;8.60;;;;;;;;;;5016366;28;20208;-87
2023/09/07 02:57:59;;;;;;;17.33;7.80;;;;;;;;;;5015001;28;20291;-87
2023/09/07 03:00:26;;;;;;;17.70;8.52;;;;;;;;;;5015456;28;20232;-87
2023/09/07 03:02:53;;;;;;;15.15;8.43;;;;;;;;;;5015977;28;20853;-87
2023/09/07 03:05:22;;;;;;;20.70;9.13;;;;;;;;;;5015778;28;20220;-87
2023/09/07 03:07:49;;;;;;;18.92;9.05;;;;;;;;;;5016122;28;20232;-87
2023/09/07 03:10:17;;;;;;;24.13;10.05;;;;;;;;;;5016099;28;20249;-86
2023/09/07 03:12:45;;;;;;;24.60;10.07;;;;;;;;;;5015750;28;20289;-87
2023/09/07 03:15:12;;;;;;;23.15;10.30;;;;;;;;;;5015298;28;20225;-86
2023/09/07 03:17:40;;;;;;;21.27;9.60;;;;;;;;;;5014442;28;20249;-87
2023/09/07 03:20:13;;;;;;;24.52;10.77;;;;;;;;;;5015734;28;20201;-87
2023/09/07 03:22:42;;;;;;;17.60;10.18;;;;;;;;;;5016255;28;20255;-87
2023/09/07 03:25:10;;;;;;;23.60;10.40;;;;;;;;;;5015376;28;20761;-88
2023/09/07 03:27:37;;;;;;;27.35;9.02;;;;;;;;;;5015786;28;20229;-87
2023/09/07 03:30:05;;;;;;;23.40;9.75;;;;;;;;;;5015663;28;20224;-88
2023/09/07 03:32:33;;;;;;;20.63;9.77;;;;;;;;;;5016002;28;20201;-86
2023/09/07 03:35:00;;;;;;;23.02;10.00;;;;;;;;;;5014967;28;20189;-88
2023/09/07 03:37:28;;;;;;;23.35;9.88;;;;;;;;;;5014745;28;20588;-88
2023/09/07 03:39:59;;;;;;;17.73;9.88;;;;;;;;;;5014901;28;20220;-88
2023/09/07 03:42:26;;;;;;;16.48;9.07;;;;;;;;;;5015886;28;20208;-88
2023/09/07 03:44:53;;;;;;;21.40;8.80;;;;;;;;;;5019103;28;20236;-89
2023/09/07 03:47:20;;;;;;;19.50;8.48;;;;;;;;;;5019232;28;20224;-87
2023/09/07 03:49:48;;;;;;;20.13;9.52;;;;;;;;;;5019300;28;20204;-85
2023/09/07 03:52:15;;;;;;;19.70;9.05;;;;;;;;;;5019470;28;20247;-86
2023/09/07 03:54:42;;;;;;;19.98;10.07;;;;;;;;;;5019374;28;20365;-87
2023/09/07 03:57:11;;;;;;;19.10;9.52;;;;;;;;;;5018724;28;20220;-87
2023/09/07 03:59:38;;;;;;;20.08;9.63;;;;;;;;;;5018277;28;20279;-87
2023/09/07 04:02:05;;;;;;;18.50;9.25;;;;;;;;;;5018357;28;20616;-87
2023/09/07 04:04:33;;;;;;;22.73;10.27;;;;;;;;;;5019724;28;20197;-87
2023/09/07 04:07:00;;;;;;;20.02;9.98;;;;;;;;;;5017901;28;20279;-87
2023/09/07 04:09:28;;;;;;;22.75;10.18;;;;;;;;;;5019080;28;20263;-87
2023/09/07 04:11:55;;;;;;;17.33;9.63;;;;;;;;;;5017586;28;20190;-87
2023/09/07 04:14:24;;;;;;;21.13;9.70;;;;;;;;;;5018081;28;20738;-86
2023/09/07 04:16:51;;;;;;;22.17;10.77;;;;;;;;;;5017553;28;20276;-87
2023/09/07 04:19:18;;;;;;;18.77;10.65;;;;;;;;;;5016725;28;20201;-87
2023/09/07 04:21:46;;;;;;;18.13;10.57;;;;;;;;;;5018579;28;20247;-86
2023/09/07 04:24:13;;;;;;;19.45;9.93;;;;;;;;;;5019273;28;20733;-86
2023/09/07 04:26:40;;;;;;;19.42;10.25;;;;;;;;;;5018994;28;20660;-86
2023/09/07 04:29:08;;;;;;;24.35;9.63;;;;;;;;;;5017153;28;20808;-87
2023/09/07 04:31:36;;;;;;;22.90;10.60;;;;;;;;;;5019566;28;20208;-86
2023/09/07 04:34:04;;;;;;;23.02;10.52;;;;;;;;;;5016608;28;20296;-86
2023/09/07 04:36:31;;;;;;;19.27;9.85;;;;;;;;;;5016941;28;20236;-87
2023/09/07 04:38:58;;;;;;;17.95;9.68;;;;;;;;;;5017362;28;20231;-86
2023/09/07 04:41:25;;;;;;;15.95;9.50;;;;;;;;;;5017197;28;20564;-86
2023/09/07 04:43:53;;;;;;;18.38;9.48;;;;;;;;;;5016478;28;20737;-86
2023/09/07 04:46:22;;;;;;;20.80;9.88;;;;;;;;;;5016130;28;20225;-85
2023/09/07 04:48:51;;;;;;;30.63;10.57;;;;;;;;;;5016263;28;20265;-86
2023/09/07 04:51:20;;;;;;;17.95;9.80;;;;;;;;;;5017417;28;20224;-87
2023/09/07 04:53:47;;;;;;;17.35;9.95;;;;;;;;;;5016273;28;20221;-86
2023/09/07 04:56:16;;;;;;;19.35;9.65;;;;;;;;;;5016488;28;20233;-87
2023/09/07 04:58:43;;;;;;;17.40;9.00;;;;;;;;;;5014954;28;20205;-88
2023/09/07 05:01:11;;;;;;;22.40;10.02;;;;;;;;;;5014929;28;20800;-87
2023/09/07 05:03:39;;;;;;;18.83;10.82;;;;;;;;;;4998752;28;20211;-87
2023/09/07 05:06:08;;;;;;;23.35;11.20;;;;;;;;;;5015268;28;20727;-88
2023/09/07 05:08:35;;;;;;;17.67;10.77;;;;;;;;;;5015282;28;20249;-87
2023/09/07 05:11:03;;;;;;;15.73;10.45;;;;;;;;;;5015320;28;20197;-86
2023/09/07 05:13:31;;;;;;;22.70;11.00;;;;;;;;;;5014522;28;20197;-87
2023/09/07 05:16:00;;;;;;;17.83;10.65;;;;;;;;;;5008387;28;20296;-87
2023/09/07 05:18:27;;;;;;;24.17;10.85;;;;;;;;;;5009656;28;20658;-87
2023/09/07 05:20:54;;;;;;;16.02;9.45;;;;;;;;;;5003220;28;20209;-88
2023/09/07 05:23:26;;;;;;;23.17;10.75;;;;;;;;;;5015159;28;20276;-86
2023/09/07 05:25:53;;;;;;;20.90;9.98;;;;;;;;;;5002526;28;20194;-89
2023/09/07 05:28:21;;;;;;;18.20;10.23;;;;;;;;;;5009998;28;20327;-86
2023/09/07 05:30:49;;;;;;;15.15;9.65;;;;;;;;;;4996553;28;20235;-83
2023/09/07 05:33:17;;;;;;;22.13;10.18;;;;;;;;;;5015671;28;20229;-85
2023/09/07 05:35:45;;;;;;;16.40;9.73;;;;;;;;;;5001626;28;20212;-87
2023/09/07 05:38:12;;;;;;;19.20;9.88;;;;;;;;;;5010595;28;20201;-86
2023/09/07 05:40:41;;;;;;;17.48;10.52;;;;;;;;;;5002615;28;20264;-89
2023/09/07 05:43:09;;;;;;;17.85;10.00;;;;;;;;;;5002771;28;20284;-87
2023/09/07 05:45:37;;;;;;;20.17;10.50;;;;;;;;;;5015121;28;20217;-86
2023/09/07 05:48:04;;;;;;;18.05;10.82;;;;;;;;;;5016236;28;20220;-86
2023/09/07 05:50:33;;;;;;;21.05;10.57;;;;;;;;;;5017102;28;20285;-86
2023/09/07 05:53:00;;;;;;;20.00;10.23;;;;;;;;;;5016539;28;20772;-87
2023/09/07 05:55:27;;;;;;;19.35;10.10;;;;;;;;;;5017103;28;20587;-87
2023/09/07 05:57:57;;;;;;;17.13;10.07;;;;;;;;;;5015436;28;20197;-86
2023/09/07 06:00:25;;;;;;;16.42;9.30;;;;;;;;;;5016385;28;20760;-86
2023/09/07 06:02:52;;;;;;;17.40;9.40;;;;;;;;;;5016642;28;20197;-86
2023/09/07 06:05:20;;;;;;;19.10;9.80;;;;;;;;;;5016251;28;20216;-88
2023/09/07 06:07:47;;;;;;;15.07;9.50;;;;;;;;;;5016890;28;20249;-86
2023/09/07 06:10:14;;;;;;;18.42;9.63;;;;;;;;;;5015414;28;20267;-87
2023/09/07 06:12:41;;;;;;;14.63;9.75;;;;;;;;;;5015766;28;20201;-86
2023/09/07 06:15:10;;;;;;;13.98;9.65;;;;;;;;;;5016319;28;20215;-87
2023/09/07 06:17:38;;;;;;;23.92;9.77;;;;;;;;;;5015236;28;20231;-86
2023/09/07 06:20:06;;;;;;;17.83;10.27;;;;;;;;;;5016837;28;20209;-86
2023/09/07 06:22:33;;;;;;;15.77;9.93;;;;;;;;;;5015537;28;20228;-87
2023/09/07 06:25:00;;;;;;;14.73;9.80;;;;;;;;;;5017246;28;20273;-86
2023/09/07 06:27:28;;;;;;;16.83;10.20;;;;;;;;;;5015841;28;20201;-86
2023/09/07 06:29:56;;;;;;;15.32;9.60;;;;;;;;;;5015064;28;20732;-87
2023/09/07 06:32:25;;;;;;;17.65;9.63;;;;;;;;;;5014823;28;20225;-87
2023/09/07 06:34:53;;;;;;;16.67;9.13;;;;;;;;;;5014068;28;20213;-87
2023/09/07 06:37:20;;;;;;;13.88;8.98;;;;;;;;;;5014889;28;20205;-86
2023/09/07 06:39:48;;;;;;;15.05;9.85;;;;;;;;;;4996569;28;20209;-89
2023/09/07 06:42:16;;;;;;;14.15;9.05;;;;;;;;;;5012991;28;20241;-86
2023/09/07 06:44:44;;;;;;;13.73;9.07;;;;;;;;;;5013455;28;20642;-85
2023/09/07 06:47:12;;;;;;;16.77;8.68;;;;;;;;;;5014464;28;20287;-90
2023/09/07 06:49:41;;;;;;;12.23;8.27;;;;;;;;;;5013883;28;20276;-87
2023/09/07 06:52:08;;;;;;;10.82;7.93;;;;;;;;;;5013697;28;20289;-86
2023/09/07 06:54:35;;;;;;;12.27;7.38;;;;;;;;;;5013176;28;20237;-86
2023/09/07 06:57:02;;;;;;;11.70;7.18;;;;;;;;;;5013781;28;20288;-86
2023/09/07 06:59:29;;;;;;;10.27;6.65;;;;;;;;;;5013745;28;20307;-86
2023/09/07 07:01:59;;;;;;;12.13;6.70;;;;;;;;;;5013644;28;20288;-86
2023/09/07 07:04:26;;;;;;;12.00;6.85;;;;;;;;;;5013854;28;20205;-86
2023/09/07 07:06:55;;;;;;;10.45;6.40;;;;;;;;;;5013184;28;20284;-86
2023/09/07 07:09:22;;;;;;;13.88;5.90;;;;;;;;;;5012592;28;20675;-86
2023/09/07 07:11:49;;;;;;;13.77;6.53;;;;;;;;;;5012252;28;20592;-86
2023/09/07 07:14:17;;;;;;;9.27;5.80;;;;;;;;;;5012659;28;20197;-85
2023/09/07 07:16:44;;;;;;;15.35;6.18;;;;;;;;;;5012000;28;20725;-87
2023/09/07 07:19:11;;;;;;;19.58;5.88;;;;;;;;;;5012829;28;20209;-87
2023/09/07 07:21:38;;;;;;;12.00;5.75;;;;;;;;;;5012695;28;20288;-87
2023/09/07 07:24:07;;;;;;;12.68;5.53;;;;;;;;;;5012866;28;20279;-86
2023/09/07 07:26:35;;;;;;;10.80;5.53;;;;;;;;;;5012583;28;20271;-87
2023/09/07 07:29:03;;;;;;;13.30;5.47;;;;;;;;;;5012629;28;20229;-88
2023/09/07 07:31:30;;;;;;;11.30;5.35;;;;;;;;;;5014235;28;20292;-89
2023/09/07 07:33:57;;;;;;;11.57;4.95;;;;;;;;;;5015166;28;20288;-88
2023/09/07 07:36:24;;;;;;;8.70;4.95;;;;;;;;;;5015689;28;20201;-88
2023/09/07 07:38:52;;;;;;;11.85;5.22;;;;;;;;;;5014885;28;20201;-88
2023/09/07 07:41:21;;;;;;;8.27;5.20;;;;;;;;;;5013501;28;20213;-87
2023/09/07 07:43:49;;;;;;;11.57;5.28;;;;;;;;;;5014447;28;20605;-87
2023/09/07 07:46:19;;;;;;;9.55;4.95;;;;;;;;;;5014210;28;20201;-88
2023/09/07 07:48:46;;;;;;;12.90;5.53;;;;;;;;;;5013355;28;20221;-89
2023/09/07 07:51:14;;;;;;;11.30;5.10;;;;;;;;;;5013973;28;20197;-88
2023/09/07 07:53:41;;;;;;;13.30;5.20;;;;;;;;;;5012998;28;20221;-86
2023/09/07 07:56:15;;;;;;;10.07;4.97;;;;;;;;;;5013105;28;20205;-87
2023/09/07 07:58:44;;;;;;;12.02;4.90;;;;;;;;;;5013210;28;20212;-88
2023/09/07 08:01:15;;;;;;;11.68;5.00;;;;;;;;;;5013365;28;20239;-88
2023/09/07 08:03:43;;;;;;;8.60;4.97;;;;;;;;;;5013408;28;20205;-87
2023/09/07 08:06:10;;;;;;;9.57;4.85;;;;;;;;;;5013554;28;20199;-87
2023/09/07 08:08:37;;;;;;;7.28;4.72;;;;;;;;;;5013467;28;20240;-88
2023/09/07 08:11:05;;;;;;;9.50;4.82;;;;;;;;;;5012785;28;20547;-87
2023/09/07 08:13:33;;;;;;;15.23;5.60;;;;;;;;;;5013851;28;20200;-90
2023/09/07 08:16:03;;;;;;;10.82;4.90;;;;;;;;;;5015616;28;20193;-88
2023/09/07 08:18:31;;;;;;;11.68;5.30;;;;;;;;;;5015437;28;20661;-88
2023/09/07 08:20:59;;;;;;;8.48;5.10;;;;;;;;;;5016339;28;20211;-89
2023/09/07 08:23:27;;;;;;;7.47;5.03;;;;;;;;;;5014592;28;20204;-88
2023/09/07 08:25:54;;;;;;;6.35;4.72;;;;;;;;;;5013446;28;20293;-88
2023/09/07 08:28:25;;;;;;;7.65;4.60;;;;;;;;;;5016685;28;20228;-89
2023/09/07 08:30:54;;;;;;;9.48;4.90;;;;;;;;;;5018055;28;20240;-89
2023/09/07 08:33:28;;;;;;;9.75;4.70;;;;;;;;;;5019354;28;20201;-89
2023/09/07 08:35:56;;;;;;;8.13;4.90;;;;;;;;;;5018527;28;20200;-89
2023/09/07 08:38:27;;;;;;;8.38;4.70;;;;;;;;;;5018454;28;20193;-89
2023/09/07 08:40:55;;;;;;;7.32;4.68;;;;;;;;;;5019479;28;20205;-89
2023/09/07 08:43:22;;;;;;;8.55;4.65;;;;;;;;;;5019258;28;20737;-88
2023/09/07 08:45:53;;;;;;;8.70;5.45;;;;;;;;;;5018455;28;20196;-91
2023/09/07 08:48:21;;;;;;;8.05;4.63;;;;;;;;;;5019195;28;20219;-88
2023/09/07 08:50:52;;;;;;;10.30;4.82;;;;;;;;;;5000834;28;20231;-90
2023/09/07 08:53:20;;;;;;;6.10;4.65;;;;;;;;;;5017076;28;20251;-89
2023/09/07 08:55:47;;;;;;;6.32;4.47;;;;;;;;;;5016561;28;20666;-90
2023/09/07 08:58:15;;;;;;;8.25;4.20;;;;;;;;;;5018204;28;20621;-90
2023/09/07 09:00:43;;;;;;;6.28;4.90;;;;;;;;;;5018197;28;20236;-90
2023/09/07 09:03:10;;;;;;;9.30;4.30;;;;;;;;;;5017237;28;20622;-90
2023/09/07 09:05:40;;;;;;;10.73;4.30;;;;;;;;;;5017699;28;20199;-90
2023/09/07 09:08:20;;;;;;;8.05;4.00;;;;;;;;;;5019162;28;20200;-90
2023/09/07 09:10:50;;;;;;;7.93;4.30;;;;;;;;;;5020372;28;20320;-90
2023/09/07 09:13:18;;;;;;;7.72;4.30;;;;;;;;;;5019334;28;20720;-87
2023/09/07 09:15:47;;;;;;;6.97;4.38;;;;;;;;;;5020175;28;20204;-87
2023/09/07 09:18:14;;;;;;;10.68;4.57;;;;;;;;;;5019846;28;20205;-88
2023/09/07 09:20:42;;;;;;;5.85;4.38;;;;;;;;;;5018874;28;20216;-90
2023/09/07 09:23:13;;;;;;;6.68;4.28;;;;;;;;;;5018938;28;20203;-89
2023/09/07 09:25:42;;;;;;;8.15;4.43;;;;;;;;;;5018416;28;20211;-90
2023/09/07 09:28:10;;;;;;;10.50;4.85;;;;;;;;;;5019663;28;20696;-91
2023/09/07 09:30:37;;;;;;;8.30;4.20;;;;;;;;;;5018229;28;20932;-90
2023/09/07 09:33:06;;;;;;;12.70;4.72;;;;;;;;;;5018539;28;20672;-91
2023/09/07 09:35:33;;;;;;;6.60;4.78;;;;;;;;;;5018218;28;20292;-90
2023/09/07 09:38:04;;;;;;;7.80;4.82;;;;;;;;;;5017751;28;20255;-90
2023/09/07 09:40:33;;;;;;;9.25;4.53;;;;;;;;;;5016896;28;20200;-91
2023/09/07 09:43:01;;;;;;;8.38;4.30;;;;;;;;;;5018083;28;20204;-90
2023/09/07 09:45:28;;;;;;;10.48;4.95;;;;;;;;;;5018641;28;20287;-91
2023/09/07 09:47:57;;;;;;;9.70;4.60;;;;;;;;;;5017686;28;20197;-91
2023/09/07 09:50:24;;;;;;;7.85;4.72;;;;;;;;;;5017588;28;20243;-90
2023/09/07 09:52:53;;;;;;;8.35;4.53;;;;;;;;;;5017219;28;20220;-91
2023/09/07 09:55:21;;;;;;;14.57;4.53;;;;;;;;;;5017296;28;20207;-91
2023/09/07 09:57:51;;;;;;;8.57;4.40;;;;;;;;;;5017974;28;20204;-92
2023/09/07 10:00:25;;;;;;;7.25;5.03;;;;;;;;;;5018356;28;20236;-91
2023/09/07 10:02:57;;;;;;;8.50;4.50;;;;;;;;;;5019666;28;20243;-91
2023/09/07 10:05:25;;;;;;;6.90;4.32;;;;;;;;;;5021137;28;20217;-91
2023/09/07 10:07:52;;;;;;;8.02;4.30;;;;;;;;;;5018381;28;20299;-91
2023/09/07 10:10:20;;;;;;;14.32;5.00;;;;;;;;;;5016916;28;20279;-91
2023/09/07 10:12:54;;;;;;;9.80;4.47;;;;;;;;;;5016549;28;20674;-91
2023/09/07 10:15:24;;;;;;;12.05;4.68;;;;;;;;;;5018150;28;20200;-92
2023/09/07 10:17:52;;;;;;;6.90;4.22;;;;;;;;;;5017674;28;20637;-91
2023/09/07 10:20:22;;;;;;;10.32;4.50;;;;;;;;;;5017196;28;20640;-91
2023/09/07 10:22:50;;;;;;;8.98;4.20;;;;;;;;;;5017098;28;20242;-91
2023/09/07 10:25:24;;;;;;;6.82;4.15;;;;;;;;;;5015805;28;20207;-92
2023/09/07 10:27:54;;;;;;;8.20;4.20;;;;;;;;;;5018864;28;20207;-90
2023/09/07 10:30:25;;;;;;;7.00;4.10;;;;;;;;;;5018047;28;20233;-91
2023/09/07 10:32:57;;;;;;;6.65;4.40;;;;;;;;;;5017791;28;20625;-91
2023/09/07 10:35:28;;;;;;;7.25;4.00;;;;;;;;;;5019784;28;20209;-92
2023/09/07 10:37:57;;;;;;;9.50;4.45;;;;;;;;;;5017288;28;20196;-92
2023/09/07 10:40:26;;;;;;;7.93;4.30;;;;;;;;;;5015246;28;20726;-90
2023/09/07 10:43:02;;;;;;;6.95;3.88;;;;;;;;;;5018637;28;20201;-91
2023/09/07 10:45:30;;;;;;;11.60;4.50;;;;;;;;;;5019018;28;21411;-91
2023/09/07 10:47:59;;;;;;;8.45;4.38;;;;;;;;;;5017964;28;20291;-92
2023/09/07 10:50:26;;;;;;;9.38;4.18;;;;;;;;;;5017461;28;20248;-92
2023/09/07 10:52:53;;;;;;;5.18;4.07;;;;;;;;;;5019387;28;20204;-90
2023/09/07 10:55:20;;;;;;;7.20;4.15;;;;;;;;;;5017419;28;20261;-91
2023/09/07 10:57:49;;;;;;;7.90;3.75;;;;;;;;;;5016773;28;20224;-90
2023/09/07 11:00:17;;;;;;;7.43;4.50;;;;;;;;;;5017757;28;20258;-91
2023/09/07 11:02:44;;;;;;;6.28;4.10;;;;;;;;;;5014947;28;20207;-90
2023/09/07 11:05:13;;;;;;;6.57;3.97;;;;;;;;;;5017202;28;20215;-90
2023/09/07 11:07:43;;;;;;;6.43;3.80;;;;;;;;;;5017911;28;20220;-91
2023/09/07 11:10:11;;;;;;;5.72;4.35;;;;;;;;;;5015696;28;20242;-91
2023/09/07 11:12:39;;;;;;;9.23;4.45;;;;;;;;;;5014832;28;20292;-90
2023/09/07 11:15:07;;;;;;;6.00;3.78;;;;;;;;;;5017704;28;20251;-90
2023/09/07 11:17:34;;;;;;;7.15;3.80;;;;;;;;;;5017866;28;20235;-91
2023/09/07 11:20:06;;;;;;;7.82;4.43;;;;;;;;;;4996950;28;20207;-90
2023/09/07 11:22:35;;;;;;;7.63;4.38;;;;;;;;;;5014413;28;20189;-89
2023/09/07 11:25:03;;;;;;;7.28;3.92;;;;;;;;;;5015834;28;20220;-90
2023/09/07 11:27:31;;;;;;;9.23;4.38;;;;;;;;;;5016534;28;20200;-91
2023/09/07 11:30:00;;;;;;;9.32;4.40;;;;;;;;;;5016974;28;20236;-91
2023/09/07 11:32:34;;;;;;;7.18;4.65;;;;;;;;;;5018024;28;20212;-91
2023/09/07 11:35:02;;;;;;;9.02;4.65;;;;;;;;;;4999202;28;20203;-91
2023/09/07 11:37:29;;;;;;;7.43;4.90;;;;;;;;;;5016627;28;20205;-91
2023/09/07 11:40:00;;;;;;;9.90;4.63;;;;;;;;;;5017281;28;20200;-90
2023/09/07 11:42:27;;;;;;;12.38;4.25;;;;;;;;;;5018066;28;20196;-90
2023/09/07 11:44:55;;;;;;;8.25;4.28;;;;;;;;;;5017786;28;20196;-91
2023/09/07 11:47:22;;;;;;;8.50;4.32;;;;;;;;;;5017872;28;20196;-91
2023/09/07 11:49:51;;;;;;;7.13;4.10;;;;;;;;;;5017108;28;20199;-90
2023/09/07 11:52:18;;;;;;;7.00;4.13;;;;;;;;;;5016841;28;20200;-89
2023/09/07 11:54:45;;;;;;;8.18;4.20;;;;;;;;;;5015586;28;20284;-90
2023/09/07 11:57:22;;;;;;;8.85;4.80;;;;;;;;;;5016227;28;20231;-89
2023/09/07 11:59:49;;;;;;;8.32;4.20;;;;;;;;;;5016950;28;20247;-90
2023/09/07 12:02:17;;;;;;;10.10;4.10;;;;;;;;;;5015973;28;20227;-90
2023/09/07 12:04:44;;;;;;;8.82;4.45;;;;;;;;;;5020071;28;20245;-91
2023/09/07 12:07:12;;;;;;;12.85;4.60;;;;;;;;;;5020521;28;20566;-90
2023/09/07 12:09:39;;;;;;;11.68;4.70;;;;;;;;;;5004097;28;20607;-91
2023/09/07 12:12:06;;;;;;;11.55;4.80;;;;;;;;;;5021883;28;20775;-91
2023/09/07 12:14:35;;;;;;;7.97;4.30;;;;;;;;;;5020566;28;20283;-90
2023/09/07 12:17:03;;;;;;;11.15;4.22;;;;;;;;;;5024633;28;20211;-89
2023/09/07 12:19:30;;;;;;;11.02;4.70;;;;;;;;;;5023885;28;20731;-90
2023/09/07 12:21:57;;;;;;;10.60;4.30;;;;;;;;;;5022315;28;20280;-89
2023/09/07 12:24:24;;;;;;;10.43;4.63;;;;;;;;;;5020734;28;20231;-90
2023/09/07 12:26:51;;;;;;;13.43;4.53;;;;;;;;;;5021530;28;20235;-90
2023/09/07 12:29:20;;;;;;;9.77;4.10;;;;;;;;;;5020737;28;20228;-91
2023/09/07 12:31:48;;;;;;;13.05;5.03;;;;;;;;;;5020532;28;20772;-88
2023/09/07 12:34:16;;;;;;;9.15;4.70;;;;;;;;;;5023299;28;20224;-90
2023/09/07 12:36:43;;;;;;;12.90;4.45;;;;;;;;;;5021336;28;20259;-89
2023/09/07 12:39:15;;;;;;;9.23;4.18;;;;;;;;;;5023053;28;20224;-91
2023/09/07 12:41:49;;;;;;;10.20;4.47;;;;;;;;;;5025230;28;20298;-89
2023/09/07 12:44:18;;;;;;;9.57;5.05;;;;;;;;;;5022903;28;20200;-90
2023/09/07 12:46:45;;;;;;;12.05;5.05;;;;;;;;;;5020931;28;20185;-90
2023/09/07 12:49:15;;;;;;;8.15;5.00;;;;;;;;;;5020324;28;20232;-91
2023/09/07 12:51:42;;;;;;;9.95;4.53;;;;;;;;;;5022011;28;20232;-88
2023/09/07 12:54:09;;;;;;;12.68;5.10;;;;;;;;;;5021715;28;20645;-89
2023/09/07 12:56:36;;;;;;;12.85;5.15;;;;;;;;;;5020313;28;20204;-90
2023/09/07 12:59:04;;;;;;;14.65;4.78;;;;;;;;;;5018323;28;20279;-89
2023/09/07 13:01:32;;;;;;;14.05;5.40;;;;;;;;;;5020670;28;20247;-91
2023/09/07 13:04:00;;;;;;;11.45;4.45;;;;;;;;;;5020638;28;20188;-89
2023/09/07 13:06:29;;;;;;;12.18;4.80;;;;;;;;;;5021731;28;20201;-89
2023/09/07 13:09:05;;;;;;;14.70;4.95;;;;;;;;;;5023505;28;20217;-89
2023/09/07 13:11:40;;;;;;;14.50;4.43;;;;;;;;;;5023653;28;20263;-89
2023/09/07 13:14:08;;;;;;;8.52;4.50;;;;;;;;;;5019427;28;20235;-89
2023/09/07 13:16:35;;;;;;;12.73;5.40;;;;;;;;;;5020158;28;20197;-89
2023/09/07 13:19:03;;;;;;;14.88;4.80;;;;;;;;;;5002545;28;20221;-90
2023/09/07 13:21:31;;;;;;;14.27;4.75;;;;;;;;;;5000116;28;20217;-89
2023/09/07 13:23:58;;;;;;;10.85;4.90;;;;;;;;;;4999476;28;20224;-88
2023/09/07 13:26:28;;;;;;;9.38;4.82;;;;;;;;;;4998616;28;20228;-88
2023/09/07 13:28:57;;;;;;;11.05;4.60;;;;;;;;;;5000335;28;20197;-89
2023/09/07 13:31:24;;;;;;;10.52;5.10;;;;;;;;;;4997630;28;20220;-89
2023/09/07 13:33:51;;;;;;;9.27;4.63;;;;;;;;;;4998967;28;20285;-89
2023/09/07 13:36:18;;;;;;;8.68;4.80;;;;;;;;;;5000248;28;20304;-89
2023/09/07 13:38:48;;;;;;;11.73;4.68;;;;;;;;;;5000133;28;20204;-90
2023/09/07 13:41:17;;;;;;;12.50;4.85;;;;;;;;;;5001053;28;20284;-89
2023/09/07 13:43:45;;;;;;;16.15;5.15;;;;;;;;;;4999177;28;20269;-89
2023/09/07 13:46:12;;;;;;;14.68;4.90;;;;;;;;;;4998666;28;20240;-90
2023/09/07 13:48:43;;;;;;;14.98;4.80;;;;;;;;;;4996859;28;20291;-88
2023/09/07 13:51:11;;;;;;;15.93;4.75;;;;;;;;;;4999820;28;20253;-89
2023/09/07 13:53:38;;;;;;;13.57;4.88;;;;;;;;;;4999688;28;20754;-89
2023/09/07 13:56:09;;;;;;;16.10;5.10;;;;;;;;;;5002560;28;20198;-87
2023/09/07 13:58:38;;;;;;;14.32;4.75;;;;;;;;;;4994804;28;20236;-86
2023/09/07 14:01:06;;;;;;;16.45;5.10;;;;;;;;;;4994860;28;20233;-86
2023/09/07 14:03:33;;;;;;;16.38;4.90;;;;;;;;;;4994129;28;20186;-86
2023/09/07 14:06:00;;;;;;;16.52;5.03;;;;;;;;;;4994377;28;20268;-86
2023/09/07 14:08:28;;;;;;;11.50;4.55;;;;;;;;;;4994776;28;20202;-86
2023/09/07 14:10:55;;;;;;;19.08;5.05;;;;;;;;;;4994717;28;20222;-87
2023/09/07 14:13:24;;;;;;;18.17;4.93;;;;;;;;;;4994772;28;20225;-86
2023/09/07 14:15:51;;;;;;;14.85;5.00;;;;;;;;;;4994139;28;20658;-86
2023/09/07 14:18:18;;;;;;;14.13;5.28;;;;;;;;;;5009305;28;20266;-86
2023/09/07 14:20:45;;;;;;;16.10;4.82;;;;;;;;;;5018730;28;20232;-85
2023/09/07 14:23:12;;;;;;;13.50;5.13;;;;;;;;;;5015214;28;20224;-86
2023/09/07 14:25:41;;;;;;;13.27;5.00;;;;;;;;;;5014048;28;20235;-86
2023/09/07 14:28:09;;;;;;;17.67;4.45;;;;;;;;;;5014188;28;20205;-85
2023/09/07 14:30:37;;;;;;;14.68;4.72;;;;;;;;;;5013904;28;20202;-86
2023/09/07 14:33:05;;;;;;;11.50;4.40;;;;;;;;;;5016584;28;20201;-86
2023/09/07 14:35:32;;;;;;;10.32;4.50;;;;;;;;;;5012921;28;20225;-86